Airfield :
LOGIN :

Register | Disclaimer

   EN    FR    IT 

 










Legend :    VFR   Marginal VFR   IFR   Intensive IFR   Very Intensive IFR
Visi :
Ceiling :
>= 8 km
>= 3000ft
5 to 8 km
1000 to 3000 ft
1500m to 5 km
500 to 1000 ft
800 to 1500m
200 to 500 ft
< 800m
< 200 ft
Symbols :   Thunderstorms  Fog  Heavy snow  Heavy precipitations  Wind > 20 kt
SIGMETs :     Misc.  Thunderstorms  Icing  Turbulence  Mountain Waves  Volcanic Ashes






- Airport Elevation : 423 ft
- IATA code : PIS


LFBI - Poitiers

CURRENT METAR :
  • 262000Z AUTO 20013KT 9999 SCT013 SCT027 BKN035 10/08 Q1018 TEMPO BKN014

EXPIRED METARs :
  • 261930Z AUTO 20011KT 9999 FEW016 SCT032 BKN052 10/08 Q1018 TEMPO BKN014
  • 261900Z AUTO 20011KT 9999 FEW020 SCT045 BKN054 10/08 Q1018 TEMPO BKN014
  • 261830Z AUTO 19008KT 9999 SCT026 BKN037 BKN047 10/08 Q1018 TEMPO BKN014
  • 261800Z AUTO 19009KT 9999 FEW027 BKN039 OVC048 10/08 Q1018 TEMPO BKN014

TAF TAF LFBI
Valid from the 26 at 18:00 until the 27 at 18:00 UTC


261700Z 2618/2718 21008KT 9999 BKN040
TEMPO 2619/2702 BKN014
TEMPO 2702/2715 20015G25KT 3000 RA BKN008
TEMPO 2715/2718 22015G35KT 3000 SHRA BKN015TCU



MET'MAP, your aeronautical weather chart ! - Copyright ORBIFLY December 2007 - Disclaimer

ORBIFLY MET'MAP TEAM :

Programming & Development : Alexandra Zaïnal
Concept & original design : Baudouin d'Aumeries
Assistance for programming : Marc-Olivier Méhu
Technical & hardware support : Manuel Goepfert

Contact : metmap@orbifly.com




SOURCES & CREDITS :

   NOAA